createdAt,value
2023-01-17T00:02:37.313Z,72.60
2023-01-17T00:07:40.986Z,72.90
2023-01-17T00:12:48.467Z,72.80
2023-01-17T00:17:52.090Z,72.50
2023-01-17T00:22:55.752Z,72.70
2023-01-17T00:27:58.188Z,73.10
2023-01-17T00:33:01.231Z,73.80
2023-01-17T00:38:08.250Z,75.80
2023-01-17T00:43:12.716Z,74.80
2023-01-17T00:48:14.948Z,74.80
2023-01-17T00:53:18.843Z,74.70
2023-01-17T00:58:20.957Z,74.70
2023-01-17T01:03:23.187Z,75.60
2023-01-17T01:08:29.608Z,76.00
2023-01-17T01:13:33.799Z,75.40
2023-01-17T01:18:35.933Z,76.00
2023-01-17T01:23:39.504Z,76.40
2023-01-17T01:28:41.684Z,76.20
2023-01-17T01:33:43.850Z,76.20
2023-01-17T01:38:47.458Z,77.40
2023-01-17T01:43:52.489Z,76.60
2023-01-17T01:48:59.237Z,77.00
2023-01-17T01:54:09.111Z,76.80
2023-01-17T01:59:16.069Z,77.00
2023-01-17T02:04:19.054Z,77.00
2023-01-17T02:09:24.142Z,77.10
2023-01-17T02:14:26.475Z,76.80
2023-01-17T02:20:15.630Z,76.80
2023-01-17T02:25:52.040Z,76.60
2023-01-17T02:31:02.663Z,76.50
2023-01-17T02:36:14.764Z,76.70
2023-01-17T02:41:22.753Z,76.70
2023-01-17T02:46:26.241Z,76.30
2023-01-17T02:52:15.702Z,76.80
2023-01-17T02:57:39.631Z,76.90
2023-01-17T03:02:56.396Z,76.70
2023-01-17T03:08:01.390Z,76.10
2023-01-17T03:13:04.633Z,76.00
2023-01-17T03:18:13.975Z,75.50
2023-01-17T03:23:16.178Z,75.70
2023-01-17T03:28:18.454Z,75.50
2023-01-17T03:33:22.011Z,76.20
2023-01-17T03:38:24.969Z,76.00
2023-01-17T03:43:27.086Z,76.30
2023-01-17T03:48:31.195Z,75.80
2023-01-17T03:53:33.299Z,75.70
2023-01-17T03:58:35.516Z,75.60
2023-01-17T04:03:39.721Z,75.50
2023-01-17T04:08:41.961Z,75.40
2023-01-17T04:13:44.152Z,75.20
2023-01-17T04:18:47.811Z,75.10
2023-01-17T04:23:50.135Z,75.60
2023-01-17T04:28:52.246Z,75.50
2023-01-17T04:33:55.791Z,75.30
2023-01-17T04:38:58.046Z,75.30
2023-01-17T04:44:00.366Z,75.30
2023-01-17T04:49:04.067Z,75.20
2023-01-17T04:54:06.389Z,74.90
2023-01-17T04:59:08.576Z,74.50
2023-01-17T05:04:12.414Z,74.20
2023-01-17T05:09:14.631Z,74.60
2023-01-17T05:14:16.812Z,74.50
2023-01-17T05:19:21.408Z,74.50
2023-01-17T05:24:23.580Z,74.60
2023-01-17T05:29:25.695Z,74.60
2023-01-17T05:34:29.394Z,74.50
2023-01-17T05:39:31.593Z,74.40
2023-01-17T05:44:33.779Z,74.30
2023-01-17T05:49:37.291Z,74.60
2023-01-17T05:54:39.638Z,74.10
2023-01-17T05:59:41.787Z,74.40
2023-01-17T06:04:45.658Z,74.30
2023-01-17T06:09:47.947Z,74.30
2023-01-17T06:14:50.254Z,74.30
2023-01-17T06:19:55.296Z,74.80
2023-01-17T06:25:00.645Z,74.30
2023-01-17T06:30:08.446Z,74.00
2023-01-17T06:35:14.584Z,73.80
2023-01-17T06:40:20.595Z,73.60
2023-01-17T06:45:25.707Z,73.60
2023-01-17T06:50:31.496Z,73.60
2023-01-17T06:55:40.065Z,73.30
2023-01-17T07:00:47.081Z,73.10
2023-01-17T07:06:12.281Z,73.10
2023-01-17T07:11:25.381Z,72.80
2023-01-17T07:16:30.347Z,72.20
2023-01-17T07:21:37.863Z,72.10
2023-01-17T07:26:49.848Z,71.80
2023-01-17T07:31:55.525Z,71.90
2023-01-17T07:37:06.689Z,72.40
2023-01-17T07:42:19.944Z,72.20
2023-01-17T07:47:26.455Z,72.90
2023-01-17T07:52:34.540Z,72.70
2023-01-17T07:57:39.190Z,72.60
2023-01-17T08:02:44.557Z,72.70
2023-01-17T08:07:54.857Z,72.80
2023-01-17T08:13:01.829Z,73.10
2023-01-17T08:18:06.613Z,72.80
2023-01-17T08:23:13.870Z,73.00
2023-01-17T08:28:19.623Z,72.80
2023-01-17T08:33:26.436Z,71.90
2023-01-17T08:38:35.318Z,72.30
2023-01-17T08:43:43.831Z,71.80
2023-01-17T08:48:57.166Z,71.10
2023-01-17T08:54:03.955Z,70.90
2023-01-17T08:59:11.227Z,71.20
2023-01-17T09:04:19.628Z,71.00
2023-01-17T09:09:33.675Z,70.90
2023-01-17T09:14:39.726Z,70.90
2023-01-17T09:19:47.589Z,70.20
2023-01-17T09:24:56.063Z,70.00
2023-01-17T09:30:11.672Z,70.50
2023-01-17T09:35:26.367Z,70.00
2023-01-17T09:41:02.429Z,69.20
2023-01-17T09:46:21.422Z,69.50
2023-01-17T09:51:27.771Z,69.60
2023-01-17T09:56:48.624Z,68.80
2023-01-17T10:02:11.330Z,68.90
2023-01-17T10:07:33.740Z,68.50
2023-01-17T10:13:01.271Z,68.50
2023-01-17T10:18:46.916Z,68.10
2023-01-17T10:24:41.930Z,67.80
2023-01-17T10:29:52.705Z,68.40
2023-01-17T10:35:05.543Z,67.70
2023-01-17T10:40:22.285Z,67.40
2023-01-17T10:45:37.715Z,67.40
2023-01-17T10:50:58.283Z,67.80
2023-01-17T10:56:05.895Z,67.80
2023-01-17T11:01:19.860Z,67.30
2023-01-17T11:06:27.371Z,66.60
2023-01-17T11:11:34.110Z,66.40
2023-01-17T11:16:48.431Z,66.50
2023-01-17T11:21:57.367Z,65.90
2023-01-17T11:27:26.187Z,65.70
2023-01-17T11:32:34.801Z,65.10
2023-01-17T11:37:48.951Z,66.00
2023-01-17T11:43:06.316Z,66.20
2023-01-17T11:48:17.470Z,65.60
2023-01-17T11:53:27.063Z,65.70
2023-01-17T11:58:33.720Z,65.50
2023-01-17T12:04:18.729Z,65.60
2023-01-17T12:09:34.941Z,65.50
2023-01-17T12:15:02.847Z,66.00
2023-01-17T12:20:25.579Z,65.20
2023-01-17T12:32:16.884Z,65.20
2023-01-17T12:37:33.016Z,65.10
2023-01-17T12:42:53.701Z,65.60
2023-01-17T12:48:15.894Z,64.80
2023-01-17T12:53:32.706Z,64.70
2023-01-17T12:58:42.628Z,64.70
2023-01-17T13:03:58.769Z,64.50
2023-01-17T13:09:05.560Z,63.80
2023-01-17T13:14:10.706Z,64.50
2023-01-17T13:19:26.434Z,64.40
2023-01-17T13:24:48.422Z,64.40
2023-01-17T13:30:12.652Z,64.30
2023-01-17T13:35:30.298Z,64.30
2023-01-17T13:40:49.097Z,64.50
2023-01-17T13:45:55.880Z,64.50
2023-01-17T13:51:01.421Z,64.10
2023-01-17T13:56:14.522Z,64.20
2023-01-17T14:01:53.405Z,64.40
2023-01-17T14:07:14.735Z,64.50
2023-01-17T14:12:36.546Z,64.50
2023-01-17T14:17:54.835Z,63.90
2023-01-17T14:23:01.696Z,64.60
2023-01-17T14:28:24.191Z,64.50
2023-01-17T14:33:39.621Z,63.90
2023-01-17T14:38:44.918Z,63.90
2023-01-17T14:43:51.877Z,64.20
2023-01-17T14:49:02.048Z,64.30
2023-01-17T14:54:18.947Z,63.80
2023-01-17T14:59:23.058Z,64.40
2023-01-17T15:04:28.345Z,64.60
2023-01-17T15:09:42.196Z,64.10
2023-01-17T15:14:47.193Z,63.60
2023-01-17T15:19:56.682Z,63.70
2023-01-17T15:25:00.126Z,63.70
2023-01-17T15:30:06.485Z,63.70
2023-01-17T15:35:17.961Z,63.80
2023-01-17T15:40:24.071Z,63.60
2023-01-17T15:45:30.714Z,63.70
2023-01-17T15:50:38.664Z,63.60
2023-01-17T15:55:47.747Z,64.00
2023-01-17T16:00:51.603Z,64.00
2023-01-17T16:05:58.003Z,64.20
2023-01-17T16:11:03.541Z,63.70
2023-01-17T16:16:17.657Z,64.40
2023-01-17T16:21:26.488Z,64.70
2023-01-17T16:26:28.920Z,64.10
2023-01-17T16:31:33.218Z,64.00
2023-01-17T16:36:35.782Z,64.20
2023-01-17T16:41:38.267Z,63.80
2023-01-17T16:46:42.114Z,63.80
2023-01-17T16:51:46.918Z,63.70
2023-01-17T16:56:49.414Z,63.50
2023-01-17T17:01:53.276Z,63.40
2023-01-17T17:06:55.551Z,63.40
2023-01-17T17:11:58.219Z,63.00
2023-01-17T17:17:04.691Z,62.60
2023-01-17T17:22:07.219Z,62.80
2023-01-17T17:27:09.797Z,62.20
2023-01-17T17:32:16.732Z,62.00
2023-01-17T17:37:19.510Z,62.50
2023-01-17T17:42:21.855Z,62.10
2023-01-17T17:47:26.322Z,62.10
2023-01-17T17:52:28.615Z,62.50
2023-01-17T17:57:31.007Z,62.50
2023-01-17T18:02:34.668Z,62.20
2023-01-17T18:07:36.848Z,62.20
2023-01-17T18:12:39.149Z,62.60
2023-01-17T18:17:42.844Z,61.90
2023-01-17T18:22:45.149Z,62.00
2023-01-17T18:27:47.629Z,62.00
2023-01-17T18:32:51.189Z,62.10
2023-01-17T18:37:53.682Z,62.50
2023-01-17T18:42:58.828Z,62.80
2023-01-17T18:48:03.034Z,62.80
2023-01-17T18:53:05.197Z,62.80
2023-01-17T18:58:08.300Z,62.60
2023-01-17T19:03:12.222Z,62.70
2023-01-17T19:08:15.759Z,63.10
2023-01-17T19:13:18.253Z,63.00
2023-01-17T19:18:21.781Z,63.00
2023-01-17T19:23:23.980Z,62.90
2023-01-17T19:28:26.281Z,63.10
2023-01-17T19:33:29.837Z,62.90
2023-01-17T19:38:33.896Z,63.10
2023-01-17T19:43:36.786Z,62.90
2023-01-17T19:48:40.539Z,63.20
2023-01-17T19:53:43.070Z,63.50
2023-01-17T19:58:46.662Z,63.60
2023-01-17T20:03:51.800Z,63.80
2023-01-17T20:08:54.342Z,64.20
2023-01-17T20:13:59.050Z,64.50
2023-01-17T20:19:03.645Z,64.40
2023-01-17T20:24:10.124Z,64.50
2023-01-17T20:29:16.586Z,64.50
2023-01-17T20:34:21.500Z,65.10
2023-01-17T20:39:23.854Z,64.90
2023-01-17T20:44:26.370Z,65.10
2023-01-17T20:49:30.023Z,65.60
2023-01-17T20:54:32.183Z,65.60
2023-01-17T20:59:35.272Z,65.90
2023-01-17T21:05:08.360Z,65.90
2023-01-17T21:10:12.068Z,66.30
2023-01-17T21:15:14.786Z,66.00
2023-01-17T21:20:19.040Z,66.30
2023-01-17T21:25:21.343Z,66.40
2023-01-17T21:30:23.665Z,66.60
2023-01-17T21:35:27.356Z,66.70
2023-01-17T21:40:29.675Z,66.90
2023-01-17T21:45:31.891Z,66.50
2023-01-17T21:50:35.813Z,66.10
2023-01-17T21:55:38.437Z,66.60
2023-01-17T22:00:43.078Z,66.90
2023-01-17T22:05:46.649Z,66.80
2023-01-17T22:10:48.807Z,66.80
2023-01-17T22:15:59.070Z,67.30
2023-01-17T22:21:07.749Z,68.10
2023-01-17T22:26:11.755Z,68.20
2023-01-17T22:31:18.122Z,68.30
2023-01-17T22:36:22.611Z,68.30
2023-01-17T22:41:28.680Z,68.50
2023-01-17T22:46:33.900Z,68.50
2023-01-17T22:51:37.511Z,68.50
2023-01-17T22:56:39.667Z,68.80
2023-01-17T23:01:41.833Z,68.70
2023-01-17T23:06:45.472Z,68.90
2023-01-17T23:11:50.106Z,68.80
2023-01-17T23:16:54.523Z,68.90
2023-01-17T23:21:59.967Z,68.50
2023-01-17T23:27:02.213Z,69.40
2023-01-17T23:32:04.983Z,70.00
2023-01-17T23:37:08.633Z,70.10
2023-01-17T23:42:10.892Z,69.50
2023-01-17T23:47:13.010Z,70.00
2023-01-17T23:52:16.676Z,69.50
2023-01-17T23:57:18.922Z,69.20
